Time,TemperatureF,DewpointF,PressureIn,WindDirection,WindDirectionDegrees,WindSpeedMPH,WindSpeedGustMPH,Humidity,HourlyPrecipIn,Conditions,Clouds,dailyrainin,SoftwareType,DateUTC
2013-06-01 00:01:00,66.1,65.2,29.95,SSW,195,2.0,2.0,97,0.00,,-RA,0.00,VWS V14.01,2013-06-01 04:01:00,
2013-06-01 00:02:00,66.1,65.2,29.95,SSW,195,2.0,2.0,97,0.00,,-RA,0.00,VWS V14.01,2013-06-01 04:02:00,
2013-06-01 00:04:00,66.1,65.2,29.95,SSW,198,6.0,6.0,97,0.00,,-RA,0.00,VWS V14.01,2013-06-01 04:04:00,
2013-06-01 00:06:00,66.1,65.2,29.95,South,186,5.0,6.0,97,0.00,,-RA,0.00,VWS V14.01,2013-06-01 04:06:00,
2013-06-01 00:11:00,66.1,65.2,29.95,South,186,2.0,6.0,97,0.00,,-RA,0.00,VWS V14.01,2013-06-01 04:11:00,
2013-06-01 00:16:00,66.1,65.2,29.95,SSW,204,7.0,7.0,97,0.00,,-RA,0.00,VWS V14.01,2013-06-01 04:16:00,
2013-06-01 00:21:00,66.0,65.1,29.95,South,170,5.0,7.0,97,0.00,,-RA,0.00,VWS V14.01,2013-06-01 04:21:00,
2013-06-01 00:26:00,66.0,65.1,29.95,South,175,2.0,7.0,97,0.00,,-RA,0.00,VWS V14.01,2013-06-01 04:26:00,
2013-06-01 00:31:00,65.9,65.0,29.94,SSW,196,2.0,3.0,97,0.00,,-RA,0.00,VWS V14.01,2013-06-01 04:31:00,
2013-06-01 00:36:00,65.9,65.0,29.94,SSW,194,2.0,3.0,97,0.00,,-RA,0.00,VWS V14.01,2013-06-01 04:36:00,
2013-06-01 00:41:00,65.8,64.9,29.94,South,189,4.0,5.0,97,0.00,,-RA,0.00,VWS V14.01,2013-06-01 04:41:00,
2013-06-01 00:46:00,65.8,64.9,29.94,SSW,195,2.0,6.0,97,0.00,,-RA,0.00,VWS V14.01,2013-06-01 04:46:00,
2013-06-01 00:51:00,65.8,64.9,29.94,SSW,192,0.0,6.0,97,0.00,,-RA,0.00,VWS V14.01,2013-06-01 04:51:00,
2013-06-01 00:56:00,65.8,64.9,29.94,South,189,3.0,6.0,97,0.00,,-RA,0.00,VWS V14.01,2013-06-01 04:56:00,
2013-06-01 01:01:00,65.7,64.8,29.94,SSE,162,1.0,2.0,97,0.00,,FEW100,0.00,VWS V14.01,2013-06-01 05:01:00,
2013-06-01 01:06:00,65.7,64.8,29.94,South,185,3.0,5.0,97,0.00,,FEW100,0.00,VWS V14.01,2013-06-01 05:06:00,
2013-06-01 01:11:00,65.7,64.8,29.94,South,188,2.0,5.0,97,0.00,,FEW100,0.00,VWS V14.01,2013-06-01 05:11:00,
2013-06-01 01:17:00,65.7,64.8,29.94,SSW,192,2.0,5.0,97,0.00,,FEW100,0.00,VWS V14.01,2013-06-01 05:17:00,
2013-06-01 01:22:00,65.7,64.8,29.95,South,189,2.0,5.0,97,0.00,,FEW100,0.00,VWS V14.01,2013-06-01 05:22:00,
2013-06-01 01:27:00,65.8,64.9,29.94,SSW,195,6.0,6.0,97,0.00,,FEW100,0.00,VWS V14.01,2013-06-01 05:27:00,
2013-06-01 01:32:00,65.8,64.9,29.94,South,186,2.0,4.0,97,0.00,,FEW100,0.00,VWS V14.01,2013-06-01 05:32:00,
2013-06-01 01:37:00,65.8,64.9,29.94,South,188,0.0,5.0,97,0.00,,FEW100,0.00,VWS V14.01,2013-06-01 05:37:00,
2013-06-01 01:42:00,65.8,64.9,29.94,SSW,192,1.0,5.0,97,0.00,,FEW100,0.00,VWS V14.01,2013-06-01 05:42:00,
2013-06-01 01:47:00,65.8,64.9,29.94,SSE,166,2.0,5.0,97,0.00,,FEW100,0.00,VWS V14.01,2013-06-01 05:47:00,
2013-06-01 01:52:00,65.8,64.9,29.94,SSW,196,3.0,5.0,97,0.00,,FEW100,0.00,VWS V14.01,2013-06-01 05:52:00,
2013-06-01 01:57:00,65.9,65.0,29.94,SSW,192,0.0,5.0,97,0.00,,FEW100,0.00,VWS V14.01,2013-06-01 05:57:00,
2013-06-01 02:02:00,65.8,64.9,29.93,SSW,197,3.0,4.0,97,0.00,,FEW100,0.00,VWS V14.01,2013-06-01 06:02:00,
2013-06-01 02:07:00,65.8,64.9,29.93,South,190,4.0,5.0,97,0.00,,FEW100,0.00,VWS V14.01,2013-06-01 06:07:00,
2013-06-01 02:12:00,65.8,64.9,29.93,SSE,166,4.0,6.0,97,0.00,,FEW100,0.00,VWS V14.01,2013-06-01 06:12:00,
2013-06-01 02:17:00,65.8,64.9,29.93,South,190,3.0,6.0,97,0.00,,FEW100,0.00,VWS V14.01,2013-06-01 06:17:00,
2013-06-01 02:22:00,65.8,64.9,29.92,SSW,204,2.0,6.0,97,0.00,,FEW100,0.00,VWS V14.01,2013-06-01 06:22:00,
2013-06-01 02:27:00,65.8,64.9,29.92,SSW,198,4.0,6.0,97,0.00,,FEW100,0.00,VWS V14.01,2013-06-01 06:27:00,
2013-06-01 02:32:00,65.8,64.6,29.91,South,186,3.0,4.0,96,0.00,,FEW100,0.00,VWS V14.01,2013-06-01 06:32:00,
2013-06-01 02:37:00,65.7,64.5,29.91,SSW,194,2.0,5.0,96,0.00,,FEW100,0.00,VWS V14.01,2013-06-01 06:37:00,
2013-06-01 02:42:00,65.7,64.5,29.91,South,187,3.0,6.0,96,0.00,,FEW100,0.00,VWS V14.01,2013-06-01 06:42:00,
2013-06-01 02:47:00,65.5,64.3,29.90,SSW,192,3.0,6.0,96,0.00,,FEW100,0.00,VWS V14.01,2013-06-01 06:47:00,
2013-06-01 02:52:00,65.5,64.3,29.90,South,191,2.0,6.0,96,0.00,,FEW100,0.00,VWS V14.01,2013-06-01 06:52:00,
2013-06-01 02:57:00,65.4,64.5,29.90,South,189,2.0,6.0,97,0.00,,FEW100,0.00,VWS V14.01,2013-06-01 06:57:00,
2013-06-01 03:02:00,65.4,64.2,29.90,South,174,1.0,3.0,96,0.00,,CLR,0.00,VWS V14.01,2013-06-01 07:02:00,
2013-06-01 03:07:00,65.4,64.5,29.89,South,186,1.0,3.0,97,0.00,,CLR,0.00,VWS V14.01,2013-06-01 07:07:00,
2013-06-01 03:12:00,65.4,64.5,29.89,South,189,3.0,4.0,97,0.00,,CLR,0.00,VWS V14.01,2013-06-01 07:12:00,
2013-06-01 03:18:00,65.5,64.6,29.89,SSE,160,1.0,4.0,97,0.00,,CLR,0.00,VWS V14.01,2013-06-01 07:18:00,
2013-06-01 03:23:00,65.4,64.5,29.89,South,188,3.0,5.0,97,0.00,,CLR,0.00,VWS V14.01,2013-06-01 07:23:00,
2013-06-01 03:28:00,65.5,64.6,29.89,South,173,2.0,6.0,97,0.00,,CLR,0.00,VWS V14.01,2013-06-01 07:28:00,
2013-06-01 03:33:00,65.6,64.7,29.90,SSW,198,2.0,2.0,97,0.00,,CLR,0.00,VWS V14.01,2013-06-01 07:33:00,
2013-06-01 03:38:00,65.7,64.8,29.89,South,190,3.0,6.0,97,0.00,,CLR,0.00,VWS V14.01,2013-06-01 07:38:00,
2013-06-01 03:43:00,65.9,65.0,29.90,SW,235,1.0,6.0,97,0.00,,CLR,0.00,VWS V14.01,2013-06-01 07:43:00,
2013-06-01 03:48:00,65.9,65.0,29.90,South,187,3.0,6.0,97,0.00,,CLR,0.00,VWS V14.01,2013-06-01 07:48:00,
2013-06-01 03:53:00,66.0,64.8,29.90,SSW,213,1.0,6.0,96,0.00,,CLR,0.00,VWS V14.01,2013-06-01 07:53:00,
2013-06-01 03:58:00,65.8,64.6,29.90,WSW,240,1.0,6.0,96,0.00,,CLR,0.00,VWS V14.01,2013-06-01 07:58:00,
2013-06-01 04:03:00,65.7,64.5,29.90,SSW,200,0.0,5.0,96,0.00,,CLR,0.00,VWS V14.01,2013-06-01 08:03:00,
2013-06-01 04:08:00,65.7,64.8,29.90,SW,225,1.0,6.0,97,0.00,,CLR,0.00,VWS V14.01,2013-06-01 08:08:00,
2013-06-01 04:13:00,65.7,64.8,29.90,West,259,2.0,6.0,97,0.00,,CLR,0.00,VWS V14.01,2013-06-01 08:13:00,
2013-06-01 04:18:00,65.6,64.4,29.90,SSW,192,1.0,6.0,96,0.00,,CLR,0.00,VWS V14.01,2013-06-01 08:18:00,
2013-06-01 04:23:00,65.5,64.6,29.90,SSW,192,2.0,6.0,97,0.00,,CLR,0.00,VWS V14.01,2013-06-01 08:23:00,
2013-06-01 04:28:00,65.5,64.6,29.90,SW,217,1.0,6.0,97,0.00,,CLR,0.00,VWS V14.01,2013-06-01 08:28:00,
2013-06-01 04:33:00,65.6,64.7,29.91,SSW,199,2.0,5.0,97,0.00,,CLR,0.00,VWS V14.01,2013-06-01 08:33:00,
2013-06-01 04:38:00,65.6,64.4,29.91,South,190,0.0,5.0,96,0.00,,CLR,0.00,VWS V14.01,2013-06-01 08:38:00,
2013-06-01 04:43:00,65.6,64.4,29.91,SW,216,3.0,5.0,96,0.00,,CLR,0.00,VWS V14.01,2013-06-01 08:43:00,
2013-06-01 04:48:00,65.7,64.8,29.91,South,189,4.0,5.0,97,0.00,,CLR,0.00,VWS V14.01,2013-06-01 08:48:00,
2013-06-01 04:53:00,65.7,64.5,29.91,South,182,3.0,5.0,96,0.00,,CLR,0.00,VWS V14.01,2013-06-01 08:53:00,
2013-06-01 04:58:00,65.7,64.5,29.91,South,191,0.0,5.0,96,0.00,,CLR,0.00,VWS V14.01,2013-06-01 08:58:00,
2013-06-01 05:03:00,65.7,64.5,29.91,South,182,2.0,5.0,96,0.00,,FEW041,0.00,VWS V14.01,2013-06-01 09:03:00,
2013-06-01 05:08:00,65.7,64.5,29.90,SSW,197,1.0,5.0,96,0.00,,FEW041,0.00,VWS V14.01,2013-06-01 09:08:00,
2013-06-01 05:13:00,65.7,64.5,29.90,SSW,197,4.0,5.0,96,0.00,,FEW041,0.00,VWS V14.01,2013-06-01 09:13:00,
2013-06-01 05:19:00,65.7,64.5,29.90,South,178,2.0,5.0,96,0.00,,FEW041,0.00,VWS V14.01,2013-06-01 09:19:00,
2013-06-01 05:24:00,65.7,64.5,29.90,South,186,3.0,5.0,96,0.00,,FEW041,0.00,VWS V14.01,2013-06-01 09:24:00,
2013-06-01 05:29:00,65.6,64.4,29.90,SSW,192,1.0,5.0,96,0.00,,FEW041,0.00,VWS V14.01,2013-06-01 09:29:00,
2013-06-01 05:34:00,65.5,64.3,29.90,South,178,3.0,3.0,96,0.00,,FEW041,0.00,VWS V14.01,2013-06-01 09:34:00,
2013-06-01 05:39:00,65.4,64.2,29.90,South,183,3.0,4.0,96,0.01,,FEW041,0.01,VWS V14.01,2013-06-01 09:39:00,
2013-06-01 05:44:00,65.4,64.2,29.90,SSW,198,2.0,5.0,96,0.01,,FEW041,0.01,VWS V14.01,2013-06-01 09:44:00,
2013-06-01 05:49:00,65.3,64.4,29.90,SSW,195,2.0,5.0,97,0.01,,FEW041,0.01,VWS V14.01,2013-06-01 09:49:00,
2013-06-01 05:54:00,65.2,64.3,29.90,SSW,195,2.0,5.0,97,0.01,,FEW041,0.01,VWS V14.01,2013-06-01 09:54:00,
2013-06-01 05:59:00,65.2,64.3,29.90,SSW,202,3.0,6.0,97,0.01,,FEW041,0.01,VWS V14.01,2013-06-01 09:59:00,
2013-06-01 06:04:00,65.1,64.2,29.90,SSW,192,1.0,4.0,97,0.01,,CLR,0.01,VWS V14.01,2013-06-01 10:04:00,
2013-06-01 06:09:00,65.1,64.2,29.90,South,173,2.0,4.0,97,0.01,,CLR,0.01,VWS V14.01,2013-06-01 10:09:00,
2013-06-01 06:14:00,65.0,64.1,29.90,South,180,0.0,4.0,97,0.01,,CLR,0.01,VWS V14.01,2013-06-01 10:14:00,
2013-06-01 06:19:00,65.0,64.1,29.90,SSE,148,2.0,4.0,97,0.01,,CLR,0.01,VWS V14.01,2013-06-01 10:19:00,
2013-06-01 06:24:00,65.0,64.1,29.90,South,169,0.0,6.0,97,0.01,,CLR,0.01,VWS V14.01,2013-06-01 10:24:00,
2013-06-01 06:29:00,65.0,64.1,29.90,SSE,153,3.0,6.0,97,0.01,,CLR,0.01,VWS V14.01,2013-06-01 10:29:00,
2013-06-01 06:34:00,65.1,64.2,29.90,South,182,2.0,3.0,97,0.01,,CLR,0.01,VWS V14.01,2013-06-01 10:34:00,
2013-06-01 06:39:00,65.1,64.2,29.90,SE,131,3.0,5.0,97,0.01,,CLR,0.01,VWS V14.01,2013-06-01 10:39:00,
2013-06-01 06:44:00,65.1,64.2,29.89,South,169,2.0,5.0,97,0.01,,CLR,0.01,VWS V14.01,2013-06-01 10:44:00,
2013-06-01 06:49:00,65.2,64.3,29.89,SE,128,1.0,5.0,97,0.01,,CLR,0.01,VWS V14.01,2013-06-01 10:49:00,
2013-06-01 06:54:00,65.3,64.4,29.90,SSE,163,0.0,5.0,97,0.01,,CLR,0.01,VWS V14.01,2013-06-01 10:54:00,
2013-06-01 06:59:00,65.3,64.4,29.90,SSE,165,1.0,5.0,97,0.01,,CLR,0.01,VWS V14.01,2013-06-01 10:59:00,
2013-06-01 07:04:00,65.4,64.5,29.89,SSE,154,0.0,4.0,97,0.00,,CLR,0.01,VWS V14.01,2013-06-01 11:04:00,
2013-06-01 07:09:00,65.6,64.7,29.89,SSE,165,2.0,4.0,97,0.00,,CLR,0.01,VWS V14.01,2013-06-01 11:09:00,
2013-06-01 07:14:00,65.9,65.0,29.89,South,177,1.0,5.0,97,0.00,,CLR,0.01,VWS V14.01,2013-06-01 11:14:00,
2013-06-01 07:19:00,66.3,65.4,29.89,SE,136,2.0,5.0,97,0.00,,CLR,0.01,VWS V14.01,2013-06-01 11:19:00,
2013-06-01 07:25:00,66.6,65.4,29.89,ESE,118,5.0,6.0,96,0.00,,CLR,0.01,VWS V14.01,2013-06-01 11:25:00,
2013-06-01 07:30:00,66.9,65.4,29.89,SE,145,4.0,6.0,95,0.00,,CLR,0.01,VWS V14.01,2013-06-01 11:30:00,
2013-06-01 07:35:00,67.2,65.4,29.89,South,188,4.0,7.0,94,0.00,,CLR,0.01,VWS V14.01,2013-06-01 11:35:00,
2013-06-01 07:40:00,67.4,65.6,29.89,SSE,160,3.0,7.0,94,0.00,,CLR,0.01,VWS V14.01,2013-06-01 11:40:00,
2013-06-01 07:45:00,67.8,66.0,29.89,South,179,5.0,7.0,94,0.00,,CLR,0.01,VWS V14.01,2013-06-01 11:45:00,
2013-06-01 07:50:00,68.3,66.2,29.89,South,190,3.0,7.0,93,0.00,,CLR,0.01,VWS V14.01,2013-06-01 11:50:00,
2013-06-01 07:55:00,68.7,66.3,29.89,SSW,203,7.0,9.0,92,0.00,,CLR,0.01,VWS V14.01,2013-06-01 11:55:00,
2013-06-01 08:00:00,69.0,66.6,29.89,South,170,4.0,9.0,92,0.00,,-RA,0.01,VWS V14.01,2013-06-01 12:00:00,
2013-06-01 08:05:00,69.2,66.8,29.89,South,184,8.0,8.0,92,0.00,,-RA,0.01,VWS V14.01,2013-06-01 12:05:00,
2013-06-01 08:10:00,69.4,67.0,29.88,South,183,6.0,10.0,92,0.00,,-RA,0.01,VWS V14.01,2013-06-01 12:10:00,
2013-06-01 08:15:00,69.7,67.0,29.88,SSE,165,3.0,10.0,91,0.00,,-RA,0.01,VWS V14.01,2013-06-01 12:15:00,
2013-06-01 08:20:00,70.2,67.4,29.88,SSW,197,8.0,11.0,91,0.00,,-RA,0.01,VWS V14.01,2013-06-01 12:20:00,
2013-06-01 08:25:00,71.0,67.3,29.89,WSW,243,6.0,14.0,88,0.00,,-RA,0.01,VWS V14.01,2013-06-01 12:25:00,
2013-06-01 08:30:00,71.3,67.2,29.89,SSE,160,8.0,14.0,87,0.00,,-RA,0.01,VWS V14.01,2013-06-01 12:30:00,
2013-06-01 08:35:00,71.2,66.8,29.89,SSE,150,5.0,12.0,86,0.00,,-RA,0.01,VWS V14.01,2013-06-01 12:35:00,
2013-06-01 08:40:00,71.0,66.9,29.88,South,180,2.0,13.0,87,0.00,,-RA,0.01,VWS V14.01,2013-06-01 12:40:00,
2013-06-01 08:45:00,71.0,66.9,29.88,South,176,4.0,13.0,87,0.00,,-RA,0.01,VWS V14.01,2013-06-01 12:45:00,
2013-06-01 08:50:00,71.1,67.0,29.88,South,177,4.0,13.0,87,0.00,,-RA,0.01,VWS V14.01,2013-06-01 12:50:00,
2013-06-01 08:55:00,71.1,67.0,29.88,SE,142,7.0,13.0,87,0.00,,-RA,0.01,VWS V14.01,2013-06-01 12:55:00,
2013-06-01 09:00:00,71.2,67.1,29.88,South,185,7.0,10.0,87,0.00,,CLR,0.01,VWS V14.01,2013-06-01 13:00:00,
2013-06-01 09:05:00,71.3,66.9,29.88,SSE,167,6.0,11.0,86,0.00,,CLR,0.01,VWS V14.01,2013-06-01 13:05:00,
2013-06-01 09:10:00,71.4,67.0,29.88,SSW,200,11.0,12.0,86,0.00,,CLR,0.01,VWS V14.01,2013-06-01 13:10:00,
2013-06-01 09:15:00,71.8,67.7,29.88,SSW,203,1.0,14.0,87,0.00,,CLR,0.01,VWS V14.01,2013-06-01 13:15:00,
2013-06-01 09:20:00,72.0,67.6,29.87,SSE,165,3.0,14.0,86,0.00,,CLR,0.01,VWS V14.01,2013-06-01 13:20:00,
2013-06-01 09:26:00,72.2,67.4,29.87,SW,219,7.0,14.0,85,0.00,,CLR,0.01,VWS V14.01,2013-06-01 13:26:00,
2013-06-01 09:31:00,72.6,67.8,29.87,WSW,244,10.0,10.0,85,0.00,,CLR,0.01,VWS V14.01,2013-06-01 13:31:00,
2013-06-01 09:36:00,72.8,67.7,29.87,SSW,196,6.0,10.0,84,0.00,,CLR,0.01,VWS V14.01,2013-06-01 13:36:00,
2013-06-01 09:41:00,73.0,68.2,29.87,WSW,243,4.0,14.0,85,0.00,,CLR,0.01,VWS V14.01,2013-06-01 13:41:00,
2013-06-01 09:46:00,73.2,68.1,29.87,SSW,200,4.0,14.0,84,0.00,,CLR,0.01,VWS V14.01,2013-06-01 13:46:00,
2013-06-01 09:51:00,73.5,68.0,29.87,South,173,7.0,14.0,83,0.00,,CLR,0.01,VWS V14.01,2013-06-01 13:51:00,
2013-06-01 09:56:00,74.0,68.9,29.87,SSE,149,1.0,14.0,84,0.00,,CLR,0.01,VWS V14.01,2013-06-01 13:56:00,
2013-06-01 10:01:00,74.6,68.4,29.86,South,172,5.0,12.0,81,0.00,,CLR,0.01,VWS V14.01,2013-06-01 14:01:00,
2013-06-01 10:06:00,75.0,69.1,29.86,WSW,244,4.0,12.0,82,0.00,,CLR,0.01,VWS V14.01,2013-06-01 14:06:00,
2013-06-01 10:11:00,75.3,68.7,29.86,SSW,205,7.0,17.0,80,0.00,,CLR,0.01,VWS V14.01,2013-06-01 14:11:00,
2013-06-01 10:16:00,74.8,68.2,29.86,SSW,210,6.0,17.0,80,0.00,,CLR,0.01,VWS V14.01,2013-06-01 14:16:00,
2013-06-01 10:21:00,74.4,68.2,29.86,South,178,7.0,17.0,81,0.00,,CLR,0.01,VWS V14.01,2013-06-01 14:21:00,
2013-06-01 10:26:00,74.2,68.4,29.86,WSW,238,1.0,17.0,82,0.00,,CLR,0.01,VWS V14.01,2013-06-01 14:26:00,
2013-06-01 10:31:00,74.1,67.9,29.86,ESE,115,8.0,12.0,81,0.00,,CLR,0.01,VWS V14.01,2013-06-01 14:31:00,
2013-06-01 10:36:00,74.1,68.3,29.86,SSW,206,4.0,16.0,82,0.00,,CLR,0.01,VWS V14.01,2013-06-01 14:36:00,
2013-06-01 10:41:00,74.3,68.4,29.86,SSE,147,11.0,16.0,82,0.00,,CLR,0.01,VWS V14.01,2013-06-01 14:41:00,
2013-06-01 10:46:00,74.5,68.3,29.85,SW,231,4.0,16.0,81,0.00,,CLR,0.01,VWS V14.01,2013-06-01 14:46:00,
2013-06-01 10:51:00,74.6,68.8,29.86,South,182,4.0,16.0,82,0.00,,CLR,0.01,VWS V14.01,2013-06-01 14:51:00,
2013-06-01 10:56:00,74.7,68.5,29.85,South,182,8.0,16.0,81,0.00,,CLR,0.01,VWS V14.01,2013-06-01 14:56:00,
2013-06-01 11:01:00,74.8,68.6,29.85,South,182,3.0,7.0,81,0.00,,BKN060,0.01,VWS V14.01,2013-06-01 15:01:00,
2013-06-01 11:07:00,75.0,68.8,29.85,SSW,213,8.0,11.0,81,0.00,,BKN060,0.01,VWS V14.01,2013-06-01 15:07:00,
2013-06-01 11:12:00,75.3,68.3,29.85,ESE,117,7.0,16.0,79,0.00,,BKN060,0.01,VWS V14.01,2013-06-01 15:12:00,
2013-06-01 11:17:00,75.5,68.2,29.85,SE,138,7.0,16.0,78,0.00,,BKN060,0.01,VWS V14.01,2013-06-01 15:17:00,
2013-06-01 11:22:00,76.1,68.8,29.84,South,178,10.0,16.0,78,0.00,,BKN060,0.01,VWS V14.01,2013-06-01 15:22:00,
2013-06-01 11:27:00,76.5,68.8,29.84,South,187,10.0,17.0,77,0.00,,BKN060,0.01,VWS V14.01,2013-06-01 15:27:00,
2013-06-01 11:32:00,76.8,69.1,29.85,SSW,209,3.0,13.0,77,0.00,,BKN060,0.01,VWS V14.01,2013-06-01 15:32:00,
2013-06-01 11:37:00,77.1,69.0,29.85,SSW,200,7.0,17.0,76,0.00,,BKN060,0.01,VWS V14.01,2013-06-01 15:37:00,
2013-06-01 11:42:00,77.2,68.7,29.84,South,178,11.0,20.0,75,0.00,,BKN060,0.01,VWS V14.01,2013-06-01 15:42:00,
2013-06-01 11:47:00,77.4,69.6,29.84,SSW,205,3.0,20.0,77,0.00,,BKN060,0.01,VWS V14.01,2013-06-01 15:47:00,
2013-06-01 11:52:00,77.6,68.7,29.85,South,187,8.0,21.0,74,0.00,,BKN060,0.01,VWS V14.01,2013-06-01 15:52:00,
2013-06-01 11:57:00,77.4,68.5,29.84,South,178,12.0,21.0,74,0.00,,BKN060,0.01,VWS V14.01,2013-06-01 15:57:00,
2013-06-01 12:02:00,77.6,69.1,29.84,SSW,203,17.0,17.0,75,0.00,,BKN028,0.01,VWS V14.01,2013-06-01 16:02:00,
2013-06-01 12:07:00,77.4,68.9,29.84,SSW,192,7.0,17.0,75,0.00,,BKN028,0.01,VWS V14.01,2013-06-01 16:07:00,
2013-06-01 12:12:00,77.3,68.8,29.84,South,172,7.0,17.0,75,0.00,,BKN028,0.01,VWS V14.01,2013-06-01 16:12:00,
2013-06-01 12:17:00,77.6,68.3,29.84,SSW,201,18.0,18.0,73,0.00,,BKN028,0.01,VWS V14.01,2013-06-01 16:17:00,
2013-06-01 12:22:00,77.4,68.5,29.84,South,170,3.0,20.0,74,0.00,,BKN028,0.01,VWS V14.01,2013-06-01 16:22:00,
2013-06-01 12:27:00,77.6,69.4,29.84,SE,140,16.0,20.0,76,0.00,,BKN028,0.01,VWS V14.01,2013-06-01 16:27:00,
2013-06-01 12:32:00,78.2,69.6,29.84,South,175,4.0,13.0,75,0.00,,BKN028,0.01,VWS V14.01,2013-06-01 16:32:00,
2013-06-01 12:37:00,78.7,69.7,29.84,SSW,205,14.0,15.0,74,0.00,,BKN028,0.01,VWS V14.01,2013-06-01 16:37:00,
2013-06-01 12:42:00,78.5,69.1,29.83,South,188,3.0,17.0,73,0.00,,BKN028,0.01,VWS V14.01,2013-06-01 16:42:00,
2013-06-01 12:47:00,78.5,68.7,29.84,South,169,8.0,18.0,72,0.00,,BKN028,0.01,VWS V14.01,2013-06-01 16:47:00,
2013-06-01 12:52:00,78.6,69.2,29.84,SSE,164,8.0,21.0,73,0.00,,BKN028,0.01,VWS V14.01,2013-06-01 16:52:00,
2013-06-01 12:57:00,78.6,69.6,29.84,SSW,194,7.0,21.0,74,0.00,,BKN028,0.01,VWS V14.01,2013-06-01 16:57:00,
2013-06-01 13:02:00,78.5,69.1,29.84,SSE,160,12.0,17.0,73,0.00,,SCT030,0.01,VWS V14.01,2013-06-01 17:02:00,
2013-06-01 13:07:00,78.5,69.1,29.84,SW,221,12.0,21.0,73,0.00,,SCT030,0.01,VWS V14.01,2013-06-01 17:07:00,
2013-06-01 13:13:00,79.1,69.3,29.84,SSW,194,15.0,21.0,72,0.00,,SCT030,0.01,VWS V14.01,2013-06-01 17:13:00,
2013-06-01 13:18:00,79.4,69.2,29.84,SW,223,9.0,21.0,71,0.00,,SCT030,0.01,VWS V14.01,2013-06-01 17:18:00,
2013-06-01 13:23:00,79.7,69.5,29.84,SSW,193,6.0,21.0,71,0.00,,SCT030,0.01,VWS V14.01,2013-06-01 17:23:00,
2013-06-01 13:28:00,79.7,69.9,29.84,South,182,9.0,21.0,72,0.00,,SCT030,0.01,VWS V14.01,2013-06-01 17:28:00,
2013-06-01 13:33:00,79.5,69.3,29.84,SSW,192,11.0,11.0,71,0.00,,SCT030,0.01,VWS V14.01,2013-06-01 17:33:00,
2013-06-01 13:38:00,79.3,69.9,29.84,South,186,6.0,17.0,73,0.00,,SCT030,0.01,VWS V14.01,2013-06-01 17:38:00,
2013-06-01 13:43:00,79.2,69.4,29.84,South,185,4.0,17.0,72,0.00,,SCT030,0.01,VWS V14.01,2013-06-01 17:43:00,
2013-06-01 13:48:00,79.2,69.8,29.85,SSW,207,6.0,17.0,73,0.00,,SCT030,0.01,VWS V14.01,2013-06-01 17:48:00,
2013-06-01 13:53:00,79.4,68.8,29.84,SW,225,7.0,17.0,70,0.00,,SCT030,0.01,VWS V14.01,2013-06-01 17:53:00,
2013-06-01 13:58:00,79.3,68.3,29.85,South,181,16.0,18.0,69,0.00,,SCT030,0.01,VWS V14.01,2013-06-01 17:58:00,
2013-06-01 14:03:00,79.0,69.2,29.84,WSW,254,7.0,11.0,72,0.00,,CLR,0.01,VWS V14.01,2013-06-01 18:03:00,
2013-06-01 14:08:00,79.1,69.3,29.84,South,171,9.0,16.0,72,0.00,,CLR,0.01,VWS V14.01,2013-06-01 18:08:00,
2013-06-01 14:13:00,79.1,69.3,29.84,WSW,244,5.0,17.0,72,0.00,,CLR,0.01,VWS V14.01,2013-06-01 18:13:00,
2013-06-01 14:18:00,79.4,69.6,29.83,South,172,8.0,17.0,72,0.00,,CLR,0.01,VWS V14.01,2013-06-01 18:18:00,
2013-06-01 14:23:00,79.8,70.8,29.83,SSW,209,2.0,17.0,74,0.00,,CLR,0.01,VWS V14.01,2013-06-01 18:23:00,
2013-06-01 14:28:00,80.2,69.5,29.83,South,172,13.0,17.0,70,0.00,,CLR,0.01,VWS V14.01,2013-06-01 18:28:00,
2013-06-01 14:33:00,79.8,69.2,29.83,SSW,200,7.0,18.0,70,0.00,,CLR,0.01,VWS V14.01,2013-06-01 18:33:00,
2013-06-01 14:38:00,79.7,69.9,29.83,SSW,192,5.0,18.0,72,0.00,,CLR,0.01,VWS V14.01,2013-06-01 18:38:00,
2013-06-01 14:43:00,79.9,69.7,29.83,SW,214,3.0,18.0,71,0.00,,CLR,0.01,VWS V14.01,2013-06-01 18:43:00,
2013-06-01 14:48:00,80.3,70.5,29.83,SSW,212,9.0,18.0,72,0.00,,CLR,0.01,VWS V14.01,2013-06-01 18:48:00,
2013-06-01 14:53:00,80.3,69.2,29.83,SW,236,14.0,18.0,69,0.00,,CLR,0.01,VWS V14.01,2013-06-01 18:53:00,
2013-06-01 14:58:00,80.3,69.6,29.83,South,174,8.0,19.0,70,0.00,,CLR,0.01,VWS V14.01,2013-06-01 18:58:00,
2013-06-01 15:03:00,80.2,69.9,29.83,SSW,205,4.0,15.0,71,0.00,,FEW033,0.01,VWS V14.01,2013-06-01 19:03:00,
2013-06-01 15:08:00,80.3,68.8,29.83,South,182,5.0,15.0,68,0.00,,FEW033,0.01,VWS V14.01,2013-06-01 19:08:00,
2013-06-01 15:14:00,80.2,69.1,29.83,SW,214,3.0,22.0,69,0.00,,FEW033,0.01,VWS V14.01,2013-06-01 19:14:00,
2013-06-01 15:19:00,80.2,69.9,29.83,SW,223,2.0,22.0,71,0.00,,FEW033,0.01,VWS V14.01,2013-06-01 19:19:00,
2013-06-01 15:24:00,79.7,69.1,29.83,SSW,201,3.0,22.0,70,0.00,,FEW033,0.01,VWS V14.01,2013-06-01 19:24:00,
2013-06-01 15:29:00,79.5,68.9,29.83,WSW,253,8.0,25.0,70,0.00,,FEW033,0.01,VWS V14.01,2013-06-01 19:29:00,
2013-06-01 15:34:00,79.5,68.4,29.83,South,181,6.0,17.0,69,0.00,,FEW033,0.01,VWS V14.01,2013-06-01 19:34:00,
2013-06-01 15:39:00,79.6,68.1,29.83,SW,222,8.0,17.0,68,0.00,,FEW033,0.01,VWS V14.01,2013-06-01 19:39:00,
2013-06-01 15:44:00,79.4,68.8,29.83,SW,222,4.0,17.0,70,0.00,,FEW033,0.01,VWS V14.01,2013-06-01 19:44:00,
2013-06-01 15:49:00,79.3,68.3,29.83,SW,232,2.0,17.0,69,0.00,,FEW033,0.01,VWS V14.01,2013-06-01 19:49:00,
2013-06-01 15:54:00,79.1,68.9,29.83,SSW,201,5.0,17.0,71,0.00,,FEW033,0.01,VWS V14.01,2013-06-01 19:54:00,
2013-06-01 15:59:00,79.2,68.2,29.82,SSW,207,9.0,17.0,69,0.00,,BKN044,0.01,VWS V14.01,2013-06-01 19:59:00,
2013-06-01 16:04:00,79.3,69.1,29.82,WNW,288,5.0,10.0,71,0.00,,BKN044,0.01,VWS V14.01,2013-06-01 20:04:00,
2013-06-01 16:09:00,79.3,68.7,29.82,WSW,244,3.0,11.0,70,0.00,,BKN044,0.01,VWS V14.01,2013-06-01 20:09:00,
2013-06-01 16:14:00,79.2,68.6,29.82,SW,222,4.0,11.0,70,0.00,,BKN044,0.01,VWS V14.01,2013-06-01 20:14:00,
2013-06-01 16:19:00,79.0,68.4,29.82,South,178,2.0,11.0,70,0.00,,BKN044,0.01,VWS V14.01,2013-06-01 20:19:00,
2013-06-01 16:24:00,79.2,69.0,29.82,SSW,192,10.0,11.0,71,0.00,,BKN044,0.01,VWS V14.01,2013-06-01 20:24:00,
2013-06-01 16:29:00,79.6,69.0,29.82,WSW,243,2.0,12.0,70,0.00,,BKN044,0.01,VWS V14.01,2013-06-01 20:29:00,
2013-06-01 16:34:00,79.8,69.2,29.82,SW,217,8.0,17.0,70,0.00,,BKN044,0.01,VWS V14.01,2013-06-01 20:34:00,
2013-06-01 16:39:00,80.0,69.3,29.82,SW,224,3.0,17.0,70,0.00,,BKN044,0.01,VWS V14.01,2013-06-01 20:39:00,
2013-06-01 16:44:00,80.3,70.1,29.81,SSW,198,2.0,17.0,71,0.00,,BKN044,0.01,VWS V14.01,2013-06-01 20:44:00,
2013-06-01 16:49:00,80.5,69.4,29.81,South,188,3.0,17.0,69,0.00,,BKN044,0.01,VWS V14.01,2013-06-01 20:49:00,
2013-06-01 16:54:00,80.4,69.3,29.81,South,180,4.0,17.0,69,0.00,,BKN044,0.01,VWS V14.01,2013-06-01 20:54:00,
2013-06-01 16:59:00,80.3,69.6,29.81,South,190,6.0,17.0,70,0.00,,BKN047,0.01,VWS V14.01,2013-06-01 20:59:00,
2013-06-01 17:04:00,80.4,69.3,29.81,SSW,194,7.0,9.0,69,0.00,,BKN047,0.01,VWS V14.01,2013-06-01 21:04:00,
2013-06-01 17:10:00,80.4,70.1,29.81,SSW,194,8.0,19.0,71,0.00,,BKN047,0.01,VWS V14.01,2013-06-01 21:10:00,
2013-06-01 17:15:00,80.1,69.4,29.80,West,259,5.0,19.0,70,0.00,,BKN047,0.01,VWS V14.01,2013-06-01 21:15:00,
2013-06-01 17:20:00,80.1,69.0,29.81,SW,217,10.0,19.0,69,0.00,,BKN047,0.01,VWS V14.01,2013-06-01 21:20:00,
2013-06-01 17:25:00,79.8,68.7,29.80,South,181,9.0,19.0,69,0.00,,BKN047,0.01,VWS V14.01,2013-06-01 21:25:00,
2013-06-01 17:30:00,79.9,69.2,29.80,SW,221,2.0,19.0,70,0.00,,BKN047,0.01,VWS V14.01,2013-06-01 21:30:00,
2013-06-01 17:35:00,80.0,69.3,29.80,SSW,206,4.0,12.0,70,0.00,,BKN047,0.01,VWS V14.01,2013-06-01 21:35:00,
2013-06-01 17:40:00,79.9,69.7,29.80,South,186,9.0,12.0,71,0.00,,BKN047,0.01,VWS V14.01,2013-06-01 21:40:00,
2013-06-01 17:45:00,80.1,69.9,29.80,SSW,209,5.0,12.0,71,0.00,,BKN047,0.01,VWS V14.01,2013-06-01 21:45:00,
2013-06-01 17:50:00,80.3,69.6,29.80,South,182,6.0,12.0,70,0.00,,BKN047,0.01,VWS V14.01,2013-06-01 21:50:00,
2013-06-01 17:55:00,80.0,69.8,29.80,SW,221,4.0,12.0,71,0.00,,BKN047,0.01,VWS V14.01,2013-06-01 21:55:00,
2013-06-01 18:00:00,79.9,69.7,29.80,SSW,202,7.0,12.0,71,0.00,,BKN050,0.01,VWS V14.01,2013-06-01 22:00:00,
2013-06-01 18:05:00,80.1,69.9,29.79,South,188,6.0,10.0,71,0.00,,BKN050,0.01,VWS V14.01,2013-06-01 22:05:00,
2013-06-01 18:10:00,80.3,69.6,29.79,SSW,199,5.0,12.0,70,0.00,,BKN050,0.01,VWS V14.01,2013-06-01 22:10:00,
2013-06-01 18:15:00,80.2,69.9,29.78,SSW,205,10.0,14.0,71,0.00,,BKN050,0.01,VWS V14.01,2013-06-01 22:15:00,
2013-06-01 18:20:00,80.3,69.2,29.78,SSW,205,7.0,14.0,69,0.00,,BKN050,0.01,VWS V14.01,2013-06-01 22:20:00,
2013-06-01 18:25:00,80.5,69.8,29.78,South,174,3.0,14.0,70,0.00,,BKN050,0.01,VWS V14.01,2013-06-01 22:25:00,
2013-06-01 18:30:00,80.6,69.9,29.78,SSW,209,1.0,14.0,70,0.00,,BKN050,0.01,VWS V14.01,2013-06-01 22:30:00,
2013-06-01 18:35:00,80.6,69.1,29.78,SW,226,5.0,8.0,68,0.00,,BKN050,0.01,VWS V14.01,2013-06-01 22:35:00,
2013-06-01 18:40:00,80.5,67.2,29.78,SSE,159,11.0,16.0,64,0.00,,BKN050,0.01,VWS V14.01,2013-06-01 22:40:00,
2013-06-01 18:45:00,80.4,68.4,29.77,SW,227,2.0,17.0,67,0.00,,BKN050,0.01,VWS V14.01,2013-06-01 22:45:00,
2013-06-01 18:50:00,80.3,67.5,29.77,South,187,10.0,17.0,65,0.00,,BKN050,0.01,VWS V14.01,2013-06-01 22:50:00,
2013-06-01 18:55:00,80.3,68.3,29.77,SSW,192,6.0,17.0,67,0.00,,BKN050,0.01,VWS V14.01,2013-06-01 22:55:00,
2013-06-01 19:01:00,80.2,67.4,29.77,SSW,207,6.0,7.0,65,0.00,,SCT042,0.01,VWS V14.01,2013-06-01 23:01:00,
2013-06-01 19:06:00,80.2,66.9,29.77,SW,214,3.0,13.0,64,0.00,,SCT042,0.01,VWS V14.01,2013-06-01 23:06:00,
2013-06-01 19:11:00,80.1,66.8,29.77,South,173,9.0,15.0,64,0.00,,SCT042,0.01,VWS V14.01,2013-06-01 23:11:00,
2013-06-01 19:16:00,79.9,67.5,29.77,SW,223,3.0,18.0,66,0.00,,SCT042,0.01,VWS V14.01,2013-06-01 23:16:00,
2013-06-01 19:21:00,79.6,67.2,29.77,SSW,205,3.0,18.0,66,0.00,,SCT042,0.01,VWS V14.01,2013-06-01 23:21:00,
2013-06-01 19:26:00,79.4,67.5,29.78,South,190,3.0,18.0,67,0.00,,SCT042,0.01,VWS V14.01,2013-06-01 23:26:00,
2013-06-01 19:31:00,79.3,67.0,29.77,SSW,196,6.0,7.0,66,0.00,,SCT042,0.01,VWS V14.01,2013-06-01 23:31:00,
2013-06-01 19:36:00,79.4,66.6,29.77,SSW,196,2.0,17.0,65,0.00,,SCT042,0.01,VWS V14.01,2013-06-01 23:36:00,
2013-06-01 19:41:00,79.2,66.0,29.77,SW,233,11.0,17.0,64,0.00,,SCT042,0.01,VWS V14.01,2013-06-01 23:41:00,
2013-06-01 19:46:00,79.1,65.9,29.77,South,180,9.0,17.0,64,0.00,,SCT042,0.01,VWS V14.01,2013-06-01 23:46:00,
2013-06-01 19:51:00,79.0,66.2,29.77,SSW,193,5.0,17.0,65,0.00,,SCT042,0.01,VWS V14.01,2013-06-01 23:51:00,
2013-06-01 19:56:00,79.0,66.2,29.77,SW,227,5.0,17.0,65,0.00,,SCT042,0.01,VWS V14.01,2013-06-01 23:56:00,
2013-06-01 20:01:00,78.9,66.6,29.77,SSW,201,3.0,5.0,66,0.00,,SCT050,0.01,VWS V14.01,2013-06-02 00:01:00,
2013-06-01 20:06:00,78.7,66.4,29.77,South,187,3.0,11.0,66,0.00,,SCT050,0.01,VWS V14.01,2013-06-02 00:06:00,
2013-06-01 20:11:00,78.5,66.6,29.77,SSW,205,2.0,11.0,67,0.00,,SCT050,0.01,VWS V14.01,2013-06-02 00:11:00,
2013-06-01 20:16:00,78.2,66.8,29.77,SSW,196,3.0,11.0,68,0.00,,SCT050,0.01,VWS V14.01,2013-06-02 00:16:00,
2013-06-01 20:21:00,78.1,67.1,29.77,SSE,162,4.0,11.0,69,0.00,,SCT050,0.01,VWS V14.01,2013-06-02 00:21:00,
2013-06-01 20:26:00,78.0,67.4,29.77,South,175,5.0,11.0,70,0.00,,SCT050,0.01,VWS V14.01,2013-06-02 00:26:00,
2013-06-01 20:31:00,77.8,67.7,29.77,South,178,4.0,4.0,71,0.00,,SCT050,0.01,VWS V14.01,2013-06-02 00:31:00,
2013-06-01 20:36:00,77.6,67.5,29.77,SSW,205,4.0,11.0,71,0.00,,SCT050,0.01,VWS V14.01,2013-06-02 00:36:00,
2013-06-01 20:41:00,77.3,67.6,29.77,SSW,198,2.0,11.0,72,0.00,,SCT050,0.01,VWS V14.01,2013-06-02 00:41:00,
2013-06-01 20:46:00,76.7,67.8,29.77,SSW,203,4.0,11.0,74,0.00,,SCT050,0.01,VWS V14.01,2013-06-02 00:46:00,
2013-06-01 20:51:00,76.3,68.2,29.77,South,178,4.0,11.0,76,0.00,,SCT050,0.01,VWS V14.01,2013-06-02 00:51:00,
2013-06-01 20:57:00,76.0,67.9,29.77,SSW,192,7.0,12.0,76,0.00,,SCT050,0.01,VWS V14.01,2013-06-02 00:57:00,
2013-06-01 21:02:00,76.0,68.3,29.77,SSW,206,4.0,8.0,77,0.00,,SCT090,0.01,VWS V14.01,2013-06-02 01:02:00,
2013-06-01 21:07:00,75.8,68.1,29.76,South,189,2.0,8.0,77,0.00,,SCT090,0.01,VWS V14.01,2013-06-02 01:07:00,
2013-06-01 21:12:00,75.5,68.2,29.76,SSW,208,7.0,8.0,78,0.00,,SCT090,0.01,VWS V14.01,2013-06-02 01:12:00,
2013-06-01 21:17:00,75.6,67.9,29.76,South,186,6.0,8.0,77,0.00,,SCT090,0.01,VWS V14.01,2013-06-02 01:17:00,
2013-06-01 21:22:00,75.7,68.0,29.76,SSW,200,10.0,10.0,77,0.00,,SCT090,0.01,VWS V14.01,2013-06-02 01:22:00,
2013-06-01 21:27:00,75.5,67.8,29.76,SSW,205,3.0,10.0,77,0.00,,SCT090,0.01,VWS V14.01,2013-06-02 01:27:00,
2013-06-01 21:32:00,75.3,68.0,29.76,South,178,5.0,7.0,78,0.00,,SCT090,0.01,VWS V14.01,2013-06-02 01:32:00,
2013-06-01 21:37:00,75.1,67.8,29.76,SSW,210,5.0,8.0,78,0.00,,SCT090,0.01,VWS V14.01,2013-06-02 01:37:00,
2013-06-01 21:42:00,74.9,67.9,29.75,South,184,4.0,8.0,79,0.00,,SCT090,0.01,VWS V14.01,2013-06-02 01:42:00,
2013-06-01 21:47:00,74.9,67.9,29.75,South,184,7.0,10.0,79,0.00,,SCT090,0.01,VWS V14.01,2013-06-02 01:47:00,
2013-06-01 21:52:00,74.8,68.2,29.75,South,171,2.0,10.0,80,0.00,,SCT090,0.01,VWS V14.01,2013-06-02 01:52:00,
2013-06-01 21:57:00,74.8,68.2,29.75,SSW,202,6.0,10.0,80,0.00,,SCT090,0.01,VWS V14.01,2013-06-02 01:57:00,
2013-06-01 22:02:00,74.8,68.2,29.75,SW,216,1.0,5.0,80,0.00,,SCT090,0.01,VWS V14.01,2013-06-02 02:02:00,
2013-06-01 22:07:00,74.9,68.3,29.75,South,184,1.0,6.0,80,0.00,,SCT090,0.01,VWS V14.01,2013-06-02 02:07:00,
2013-06-01 22:12:00,74.9,68.3,29.75,SSE,164,1.0,6.0,80,0.00,,SCT090,0.01,VWS V14.01,2013-06-02 02:12:00,
2013-06-01 22:17:00,74.8,68.2,29.74,South,188,1.0,6.0,80,0.00,,SCT090,0.01,VWS V14.01,2013-06-02 02:17:00,
2013-06-01 22:22:00,74.6,68.4,29.74,SSW,212,2.0,7.0,81,0.00,,SCT090,0.01,VWS V14.01,2013-06-02 02:22:00,
2013-06-01 22:27:00,74.4,68.2,29.74,South,191,3.0,7.0,81,0.00,,SCT090,0.01,VWS V14.01,2013-06-02 02:27:00,
2013-06-01 22:32:00,74.4,68.2,29.74,SSE,167,0.0,5.0,81,0.00,,SCT090,0.01,VWS V14.01,2013-06-02 02:32:00,
2013-06-01 22:37:00,74.4,68.2,29.74,South,188,8.0,12.0,81,0.00,,SCT090,0.01,VWS V14.01,2013-06-02 02:37:00,
2013-06-01 22:42:00,74.6,68.0,29.74,SSE,152,4.0,15.0,80,0.00,,SCT090,0.01,VWS V14.01,2013-06-02 02:42:00,
2013-06-01 22:47:00,74.8,67.9,29.74,SSW,195,11.0,15.0,79,0.00,,SCT090,0.01,VWS V14.01,2013-06-02 02:47:00,
2013-06-01 22:53:00,74.9,67.9,29.74,SW,218,13.0,15.0,79,0.00,,SCT090,0.01,VWS V14.01,2013-06-02 02:53:00,
2013-06-01 22:58:00,74.8,67.9,29.74,SSE,156,7.0,15.0,79,0.00,,SCT090,0.01,VWS V14.01,2013-06-02 02:58:00,
2013-06-01 23:03:00,74.6,68.0,29.74,South,171,9.0,10.0,80,0.00,,-RA,0.01,VWS V14.01,2013-06-02 03:03:00,
2013-06-01 23:08:00,74.5,67.9,29.74,SSW,192,7.0,11.0,80,0.00,,-RA,0.01,VWS V14.01,2013-06-02 03:08:00,
2013-06-01 23:13:00,74.4,67.8,29.74,SSW,212,7.0,20.0,80,0.00,,-RA,0.01,VWS V14.01,2013-06-02 03:13:00,
2013-06-01 23:18:00,74.3,67.7,29.74,South,175,13.0,20.0,80,0.00,,-RA,0.01,VWS V14.01,2013-06-02 03:18:00,
2013-06-01 23:23:00,74.2,68.0,29.74,SSW,193,7.0,20.0,81,0.00,,-RA,0.01,VWS V14.01,2013-06-02 03:23:00,
2013-06-01 23:28:00,74.2,68.0,29.74,SSE,165,7.0,20.0,81,0.00,,-RA,0.01,VWS V14.01,2013-06-02 03:28:00,
2013-06-01 23:33:00,74.2,68.0,29.74,SW,233,15.0,16.0,81,0.00,,-RA,0.01,VWS V14.01,2013-06-02 03:33:00,
2013-06-01 23:38:00,74.4,68.2,29.74,SW,216,2.0,16.0,81,0.00,,-RA,0.01,VWS V14.01,2013-06-02 03:38:00,
2013-06-01 23:43:00,74.4,68.2,29.74,SW,234,2.0,18.0,81,0.00,,-RA,0.01,VWS V14.01,2013-06-02 03:43:00,
2013-06-01 23:48:00,73.9,68.4,29.74,South,191,7.0,18.0,83,0.00,,-RA,0.01,VWS V14.01,2013-06-02 03:48:00,
2013-06-01 23:53:00,72.8,68.7,29.74,South,170,11.0,18.0,87,0.02,,-RA,0.03,VWS V14.01,2013-06-02 03:53:00,
2013-06-01 23:58:00,71.7,68.6,29.76,West,267,11.0,18.0,90,0.08,,-RA,0.09,VWS V14.01,2013-06-02 03:58:00,